createdAt,value
2017-06-24T00:00:29.941Z,0
2017-06-24T00:01:29.972Z,0
2017-06-24T00:02:30.019Z,0
2017-06-24T00:03:30.060Z,0
2017-06-24T00:04:30.406Z,0
2017-06-24T00:05:30.140Z,0
2017-06-24T00:06:30.231Z,0
2017-06-24T00:07:30.211Z,0
2017-06-24T00:08:30.263Z,0
2017-06-24T00:09:30.293Z,0
2017-06-24T00:10:30.339Z,0
2017-06-24T00:11:30.988Z,0
2017-06-24T00:12:31.033Z,0
2017-06-24T00:13:30.459Z,0
2017-06-24T00:14:30.498Z,0
2017-06-24T00:15:30.542Z,0
2017-06-24T00:16:30.577Z,0
2017-06-24T00:17:30.615Z,0
2017-06-24T00:18:30.663Z,0
2017-06-24T00:19:30.725Z,0
2017-06-24T00:20:30.739Z,0
2017-06-24T00:21:30.778Z,0
2017-06-24T00:22:31.137Z,0
2017-06-24T00:23:31.479Z,0
2017-06-24T00:24:30.912Z,0
2017-06-24T00:25:30.943Z,0
2017-06-24T00:26:30.981Z,0
2017-06-24T00:27:31.024Z,0
2017-06-24T00:28:31.372Z,0
2017-06-24T00:29:31.098Z,0
2017-06-24T00:30:31.144Z,0
2017-06-24T00:31:31.482Z,0
2017-06-24T00:32:31.222Z,0
2017-06-24T00:33:31.256Z,0
2017-06-24T00:34:31.306Z,0
2017-06-24T00:35:31.961Z,0
2017-06-24T00:36:31.384Z,0
2017-06-24T00:37:31.413Z,0
2017-06-24T00:38:31.456Z,0
2017-06-24T00:39:31.510Z,0
2017-06-24T00:40:31.543Z,0
2017-06-24T00:41:31.891Z,0
2017-06-24T00:42:31.923Z,0
2017-06-24T00:43:31.961Z,0
2017-06-24T00:44:32.310Z,0
2017-06-24T00:45:31.747Z,0
2017-06-24T00:46:31.779Z,0
2017-06-24T00:47:31.820Z,0
2017-06-24T00:48:32.470Z,0
2017-06-24T00:49:31.901Z,0
2017-06-24T00:50:32.252Z,0
2017-06-24T00:51:32.290Z,0
2017-06-24T00:52:32.016Z,0
2017-06-24T00:53:32.067Z,0
2017-06-24T00:54:32.400Z,0
2017-06-24T00:55:32.145Z,0
2017-06-24T00:56:32.186Z,0
2017-06-24T00:57:32.529Z,0
2017-06-24T00:58:32.259Z,0
2017-06-24T00:59:32.606Z,0
2017-06-24T01:00:32.340Z,0
2017-06-24T01:01:32.371Z,0
2017-06-24T01:02:32.417Z,0
2017-06-24T01:03:33.078Z,0
2017-06-24T01:04:32.501Z,0
2017-06-24T01:05:32.844Z,0
2017-06-24T01:06:32.583Z,0
2017-06-24T01:07:32.616Z,0
2017-06-24T01:08:32.659Z,0
2017-06-24T01:09:32.693Z,0
2017-06-24T01:10:32.740Z,0
2017-06-24T01:11:33.085Z,0
2017-06-24T01:12:32.825Z,0
2017-06-24T01:13:32.860Z,0
2017-06-24T01:14:33.208Z,0
2017-06-24T01:15:33.554Z,0
2017-06-24T01:16:33.598Z,0
2017-06-24T01:17:33.010Z,0
2017-06-24T01:18:33.060Z,0
2017-06-24T01:19:33.717Z,0
2017-06-24T01:20:33.130Z,0
2017-06-24T01:21:33.709Z,0
2017-06-24T01:22:33.214Z,0
2017-06-24T01:23:33.260Z,0
2017-06-24T01:24:33.606Z,0
2017-06-24T01:25:33.645Z,0
2017-06-24T01:26:33.370Z,0
2017-06-24T01:27:33.728Z,0
2017-06-24T01:28:33.460Z,0
2017-06-24T01:29:33.493Z,0
2017-06-24T01:30:33.871Z,0
2017-06-24T01:31:33.875Z,0
2017-06-24T01:32:33.920Z,0
2017-06-24T01:33:33.654Z,0
2017-06-24T01:34:33.696Z,0
2017-06-24T01:35:33.739Z,0
2017-06-24T01:36:33.769Z,0
2017-06-24T01:37:34.129Z,0
2017-06-24T01:38:34.470Z,0
2017-06-24T01:39:34.203Z,0
2017-06-24T01:40:33.941Z,0
2017-06-24T01:41:33.973Z,0
2017-06-24T01:42:34.012Z,0
2017-06-24T01:43:34.061Z,0
2017-06-24T01:44:34.393Z,0
2017-06-24T01:45:34.440Z,0
2017-06-24T01:46:34.169Z,0
2017-06-24T01:47:34.214Z,0
2017-06-24T01:48:34.254Z,0
2017-06-24T01:49:34.285Z,0
2017-06-24T01:50:34.643Z,0
2017-06-24T01:51:34.380Z,0
2017-06-24T01:52:34.413Z,0
2017-06-24T01:53:34.454Z,0
2017-06-24T01:54:34.487Z,0
2017-06-24T01:55:34.845Z,0
2017-06-24T01:56:34.877Z,0
2017-06-24T01:57:34.616Z,0
2017-06-24T01:58:34.649Z,0
2017-06-24T01:59:34.688Z,0
2017-06-24T02:00:35.044Z,0
2017-06-24T02:01:35.082Z,0
2017-06-24T02:02:35.118Z,0
2017-06-24T02:03:35.161Z,0
2017-06-24T02:04:34.890Z,0
2017-06-24T02:05:35.242Z,0
2017-06-24T02:06:34.967Z,0
2017-06-24T02:07:35.013Z,0
2017-06-24T02:08:35.671Z,0
2017-06-24T02:09:35.087Z,0
2017-06-24T02:10:35.138Z,0
2017-06-24T02:11:35.171Z,0
2017-06-24T02:12:35.209Z,0
2017-06-24T02:13:35.559Z,0
2017-06-24T02:14:35.287Z,4
2017-06-24T02:15:35.634Z,4
2017-06-24T02:16:35.370Z,4
2017-06-24T02:17:35.404Z,4
2017-06-24T02:18:35.463Z,4
2017-06-24T02:19:35.485Z,4
2017-06-24T02:20:35.533Z,4
2017-06-24T02:21:35.564Z,8
2017-06-24T02:22:35.916Z,4
2017-06-24T02:23:35.963Z,8
2017-06-24T02:24:35.684Z,8
2017-06-24T02:25:36.034Z,8
2017-06-24T02:26:35.769Z,8
2017-06-24T02:27:35.807Z,12
2017-06-24T02:28:35.847Z,12
2017-06-24T02:29:36.509Z,12
2017-06-24T02:30:36.228Z,20
2017-06-24T02:31:35.959Z,20
2017-06-24T02:32:36.322Z,20
2017-06-24T02:33:36.656Z,24
2017-06-24T02:34:36.087Z,28
2017-06-24T02:35:36.140Z,32
2017-06-24T02:36:36.469Z,32
2017-06-24T02:37:36.201Z,36
2017-06-24T02:38:36.241Z,40
2017-06-24T02:39:36.285Z,48
2017-06-24T02:40:36.549Z,52
2017-06-24T02:41:36.362Z,56
2017-06-24T02:42:36.712Z,60
2017-06-24T02:43:36.775Z,64
2017-06-24T02:44:36.487Z,72
2017-06-24T02:45:36.566Z,80
2017-06-24T02:46:36.566Z,92
2017-06-24T02:47:36.599Z,96
2017-06-24T02:48:36.961Z,104
2017-06-24T02:49:36.688Z,116
2017-06-24T02:50:37.035Z,128
2017-06-24T02:51:37.372Z,140
2017-06-24T02:52:37.113Z,156
2017-06-24T02:53:36.839Z,164
2017-06-24T02:54:37.183Z,176
2017-06-24T02:55:36.919Z,188
2017-06-24T02:56:36.961Z,204
2017-06-24T02:57:37.318Z,220
2017-06-24T02:58:37.042Z,236
2017-06-24T02:59:37.078Z,248
2017-06-24T03:00:37.114Z,260
2017-06-24T03:01:37.464Z,276
2017-06-24T03:02:37.197Z,296
2017-06-24T03:03:37.236Z,308
2017-06-24T03:04:37.587Z,328
2017-06-24T03:05:37.312Z,344
2017-06-24T03:06:37.671Z,364
2017-06-24T03:07:37.698Z,384
2017-06-24T03:08:37.438Z,400
2017-06-24T03:09:37.786Z,416
2017-06-24T03:10:37.826Z,440
2017-06-24T03:11:37.550Z,460
2017-06-24T03:12:37.598Z,476
2017-06-24T03:13:37.629Z,496
2017-06-24T03:14:38.290Z,508
2017-06-24T03:15:37.716Z,528
2017-06-24T03:16:38.369Z,552
2017-06-24T03:17:38.020Z,572
2017-06-24T03:18:38.142Z,580
2017-06-24T03:19:37.874Z,592
2017-06-24T03:20:37.920Z,592
2017-06-24T03:21:38.570Z,592
2017-06-24T03:22:37.994Z,608
2017-06-24T03:23:38.339Z,636
2017-06-24T03:24:38.688Z,708
2017-06-24T03:25:38.421Z,780
2017-06-24T03:26:38.456Z,872
2017-06-24T03:27:38.498Z,980
2017-06-24T03:28:38.456Z,1112
2017-06-24T03:29:38.572Z,1188
2017-06-24T03:30:38.351Z,1168
2017-06-24T03:31:38.405Z,1120
2017-06-24T03:32:38.999Z,1100
2017-06-24T03:33:38.435Z,1112
2017-06-24T03:34:38.470Z,1144
2017-06-24T03:35:38.508Z,1184
2017-06-24T03:36:38.557Z,1236
2017-06-24T03:37:38.892Z,1280
2017-06-24T03:38:38.938Z,1332
2017-06-24T03:39:38.662Z,1404
2017-06-24T03:40:38.718Z,1468
2017-06-24T03:41:38.748Z,1576
2017-06-24T03:42:39.098Z,1652
2017-06-24T03:43:38.823Z,1740
2017-06-24T03:44:38.870Z,1800
2017-06-24T03:45:39.223Z,1852
2017-06-24T03:46:38.946Z,1900
2017-06-24T03:47:39.295Z,1932
2017-06-24T03:48:39.330Z,1944
2017-06-24T03:49:39.062Z,1964
2017-06-24T03:50:39.107Z,1992
2017-06-24T03:51:39.141Z,2084
2017-06-24T03:52:39.187Z,2228
2017-06-24T03:53:39.220Z,2336
2017-06-24T03:54:39.277Z,2568
2017-06-24T03:55:39.303Z,2728
2017-06-24T03:56:40.271Z,3428
2017-06-24T03:57:39.392Z,3332
2017-06-24T03:58:39.728Z,3932
2017-06-24T03:59:39.800Z,4920
2017-06-24T04:00:39.503Z,5276
2017-06-24T04:01:39.550Z,5372
2017-06-24T04:02:39.587Z,4364
2017-06-24T04:03:39.933Z,5804
2017-06-24T04:04:39.995Z,5908
2017-06-24T04:05:40.019Z,6132
2017-06-24T04:06:39.749Z,6480
2017-06-24T04:07:40.101Z,6548
2017-06-24T04:08:40.138Z,6864
2017-06-24T04:09:40.487Z,7204
2017-06-24T04:10:40.218Z,6880
2017-06-24T04:11:40.265Z,5836
2017-06-24T04:12:39.989Z,4348
2017-06-24T04:13:40.342Z,3496
2017-06-24T04:14:40.703Z,3308
2017-06-24T04:15:40.155Z,3280
2017-06-24T04:16:40.474Z,3352
2017-06-24T04:17:40.205Z,3496
2017-06-24T04:18:40.249Z,3660
2017-06-24T04:19:40.281Z,4060
2017-06-24T04:20:40.339Z,4348
2017-06-24T04:21:40.374Z,4684
2017-06-24T04:22:40.414Z,4712
2017-06-24T04:23:40.449Z,4584
2017-06-24T04:24:40.495Z,4564
2017-06-24T04:25:40.840Z,4476
2017-06-24T04:26:40.574Z,4384
2017-06-24T04:27:40.928Z,4200
2017-06-24T04:28:40.964Z,4408
2017-06-24T04:29:41.010Z,4752
2017-06-24T04:30:41.044Z,5280
2017-06-24T04:31:40.787Z,6144
2017-06-24T04:32:40.828Z,8064
2017-06-24T04:33:40.869Z,10648
2017-06-24T04:34:40.902Z,10812
2017-06-24T04:35:41.287Z,10652
2017-06-24T04:36:40.992Z,11704
2017-06-24T04:37:41.339Z,11016
2017-06-24T04:38:41.079Z,10628
2017-06-24T04:39:41.114Z,8196
2017-06-24T04:40:41.459Z,7160
2017-06-24T04:41:41.554Z,7756
2017-06-24T04:42:41.544Z,9332
2017-06-24T04:43:41.284Z,10136
2017-06-24T04:44:41.329Z,11532
2017-06-24T04:45:41.365Z,15104
2017-06-24T04:46:41.409Z,12800
2017-06-24T04:47:41.757Z,11848
2017-06-24T04:48:41.803Z,14464
2017-06-24T04:49:41.533Z,16000
2017-06-24T04:50:41.583Z,14976
2017-06-24T04:51:41.620Z,13568
2017-06-24T04:52:41.977Z,11568
2017-06-24T04:53:41.705Z,9608
2017-06-24T04:54:42.061Z,8624
2017-06-24T04:55:41.798Z,8956
2017-06-24T04:56:41.839Z,9104
2017-06-24T04:57:42.210Z,8760
2017-06-24T04:58:42.238Z,8636
2017-06-24T04:59:41.963Z,8916
2017-06-24T05:00:42.031Z,9028
2017-06-24T05:01:42.053Z,9052
2017-06-24T05:02:42.103Z,9876
2017-06-24T05:03:42.146Z,9916
2017-06-24T05:04:42.202Z,10412
2017-06-24T05:05:42.229Z,11004
2017-06-24T05:06:42.304Z,12408
2017-06-24T05:07:42.315Z,12160
2017-06-24T05:08:42.360Z,11840
2017-06-24T05:09:42.404Z,9392
2017-06-24T05:10:42.449Z,9600
2017-06-24T05:11:42.484Z,9676
2017-06-24T05:12:43.153Z,9616
2017-06-24T05:13:42.872Z,11220
2017-06-24T05:14:42.622Z,10524
2017-06-24T05:15:42.974Z,10500
2017-06-24T05:16:42.709Z,9596
2017-06-24T05:17:42.753Z,9512
2017-06-24T05:18:42.792Z,9672
2017-06-24T05:19:42.836Z,9584
2017-06-24T05:20:43.189Z,9504
2017-06-24T05:21:42.918Z,9636
2017-06-24T05:22:43.267Z,9940
2017-06-24T05:23:43.011Z,9832
2017-06-24T05:24:43.057Z,10532
2017-06-24T05:25:43.091Z,10628
2017-06-24T05:26:43.437Z,10876
2017-06-24T05:27:43.489Z,11148
2017-06-24T05:28:43.224Z,11036
2017-06-24T05:29:43.578Z,11584
2017-06-24T05:30:43.313Z,11000
2017-06-24T05:31:43.352Z,10700
2017-06-24T05:32:43.398Z,10916
2017-06-24T05:33:43.741Z,10984
2017-06-24T05:34:44.087Z,11164
2017-06-24T05:35:43.830Z,11576
2017-06-24T05:36:43.561Z,12236
2017-06-24T05:37:43.603Z,12172
2017-06-24T05:38:44.275Z,12956
2017-06-24T05:39:43.691Z,14372
2017-06-24T05:40:43.743Z,14732
2017-06-24T05:41:44.087Z,19904
2017-06-24T05:42:44.451Z,21856
2017-06-24T05:43:44.186Z,24096
2017-06-24T05:44:43.911Z,27392
2017-06-24T05:45:43.957Z,28448
2017-06-24T05:46:44.007Z,31680
2017-06-24T05:47:44.044Z,32256
2017-06-24T05:48:44.086Z,33536
2017-06-24T05:49:44.126Z,34112
2017-06-24T05:50:44.489Z,34080
2017-06-24T05:51:44.840Z,34048
2017-06-24T05:52:44.275Z,31136
2017-06-24T05:53:44.318Z,34720
2017-06-24T05:54:44.361Z,36288
2017-06-24T05:55:44.402Z,34048
2017-06-24T05:56:45.077Z,34400
2017-06-24T05:57:44.810Z,34272
2017-06-24T05:58:44.848Z,32096
2017-06-24T05:59:45.213Z,34240
2017-06-24T06:00:44.642Z,38656
2017-06-24T06:01:44.693Z,36160
2017-06-24T06:02:44.743Z,35488
2017-06-24T06:03:44.784Z,36256
2017-06-24T06:04:45.144Z,40128
2017-06-24T06:05:45.188Z,37024
2017-06-24T06:06:44.964Z,37536
2017-06-24T06:07:44.978Z,38144
2017-06-24T06:08:45.035Z,37952
2017-06-24T06:09:45.096Z,39648
2017-06-24T06:10:45.133Z,40768
2017-06-24T06:11:45.178Z,39936
2017-06-24T06:12:45.233Z,37824
2017-06-24T06:13:45.593Z,40224
2017-06-24T06:14:45.337Z,42816
2017-06-24T06:15:45.386Z,46336
2017-06-24T06:16:45.430Z,45568
2017-06-24T06:17:45.484Z,46272
2017-06-24T06:18:45.539Z,41120
2017-06-24T06:19:45.587Z,43584
2017-06-24T06:20:45.953Z,41248
2017-06-24T06:21:45.999Z,45504
2017-06-24T06:22:45.741Z,44128
2017-06-24T06:23:46.098Z,43392
2017-06-24T06:24:45.837Z,43840
2017-06-24T06:25:45.900Z,44960
2017-06-24T06:26:45.951Z,47712
2017-06-24T06:27:46.309Z,52608
2017-06-24T06:28:46.351Z,51392
2017-06-24T06:29:46.101Z,50432
2017-06-24T06:30:46.465Z,50592
2017-06-24T06:31:46.211Z,47904
2017-06-24T06:32:46.254Z,43456
2017-06-24T06:33:46.313Z,44448
2017-06-24T06:34:46.673Z,46272
2017-06-24T06:35:46.425Z,46816
2017-06-24T06:36:46.783Z,52896
2017-06-24T06:37:46.519Z,58400
2017-06-24T06:38:46.578Z,61696
2017-06-24T06:39:46.656Z,61984
2017-06-24T06:40:46.862Z,63904
2017-06-24T06:41:47.042Z,63776
2017-06-24T06:42:46.793Z,63136
2017-06-24T06:43:46.847Z,59552
2017-06-24T06:44:46.896Z,54816
2017-06-24T06:45:46.959Z,58176
2017-06-24T06:46:47.005Z,57024
2017-06-24T06:47:47.064Z,56128
2017-06-24T06:48:47.122Z,57088
2017-06-24T06:49:47.480Z,59232
2017-06-24T06:50:47.227Z,59648
2017-06-24T06:51:47.589Z,59616
2017-06-24T06:52:47.638Z,61376
2017-06-24T06:53:47.699Z,60640
2017-06-24T06:54:47.760Z,61408
2017-06-24T06:55:47.807Z,62272
2017-06-24T06:56:47.863Z,63584
2017-06-24T06:57:47.915Z,51488
2017-06-24T06:58:47.661Z,56768
2017-06-24T06:59:48.032Z,58688
2017-06-24T07:00:47.769Z,59808
2017-06-24T07:01:47.836Z,58752
2017-06-24T07:02:47.889Z,57792
2017-06-24T07:03:48.250Z,59008
2017-06-24T07:04:48.004Z,59072
2017-06-24T07:05:48.053Z,61024
2017-06-24T07:06:48.109Z,61408
2017-06-24T07:07:48.167Z,59584
2017-06-24T07:08:48.222Z,58688
2017-06-24T07:09:48.297Z,61600
2017-06-24T07:10:48.342Z,60800
2017-06-24T07:11:48.692Z,61472
2017-06-24T07:12:48.442Z,65408
2017-06-24T07:13:48.498Z,70976
2017-06-24T07:14:48.549Z,70656
2017-06-24T07:15:48.604Z,74720
2017-06-24T07:16:48.688Z,75680
2017-06-24T07:17:48.723Z,71296
2017-06-24T07:18:48.772Z,72288
2017-06-24T07:19:48.833Z,70464
2017-06-24T07:20:48.883Z,69440
2017-06-24T07:21:49.252Z,73920
2017-06-24T07:22:49.307Z,74112
2017-06-24T07:23:49.059Z,73376
2017-06-24T07:24:49.116Z,78464
2017-06-24T07:25:49.165Z,78624
2017-06-24T07:26:49.224Z,72736
2017-06-24T07:27:49.277Z,74240
2017-06-24T07:28:49.346Z,74208
2017-06-24T07:29:49.408Z,72480
2017-06-24T07:30:49.457Z,76608
2017-06-24T07:31:49.819Z,77760
2017-06-24T07:32:49.567Z,79904
2017-06-24T07:33:50.552Z,80736
2017-06-24T07:34:49.685Z,81984
2017-06-24T07:35:49.746Z,83552
2017-06-24T07:36:49.797Z,86080
2017-06-24T07:37:49.854Z,86784
2017-06-24T07:38:49.921Z,87232
2017-06-24T07:39:49.980Z,85984
2017-06-24T07:40:50.338Z,86880
2017-06-24T07:41:50.088Z,88192
2017-06-24T07:42:50.148Z,85216
2017-06-24T07:43:50.218Z,88992
2017-06-24T07:44:50.266Z,92320
2017-06-24T07:45:50.320Z,90976
2017-06-24T07:46:50.690Z,88576
2017-06-24T07:47:50.752Z,86176
2017-06-24T07:48:50.808Z,85600
2017-06-24T07:49:50.554Z,85280
2017-06-24T07:50:50.945Z,85632
2017-06-24T07:51:50.675Z,87904
2017-06-24T07:52:50.734Z,89472
2017-06-24T07:53:50.815Z,90368
2017-06-24T07:54:50.886Z,92000
2017-06-24T07:55:50.909Z,92288
2017-06-24T07:56:50.971Z,92224
2017-06-24T07:57:51.019Z,89792
2017-06-24T07:58:51.420Z,89248
2017-06-24T07:59:51.143Z,90016
2017-06-24T08:00:51.820Z,89920
2017-06-24T08:01:51.256Z,89408
2017-06-24T08:02:51.319Z,88032
2017-06-24T08:03:51.376Z,88320
2017-06-24T08:04:51.437Z,89984
2017-06-24T08:05:51.800Z,89568
2017-06-24T08:06:52.173Z,88896
2017-06-24T08:07:51.614Z,90176
2017-06-24T08:08:51.980Z,92512
2017-06-24T08:09:52.037Z,96064
2017-06-24T08:10:52.104Z,96032
2017-06-24T08:11:51.844Z,95328
2017-06-24T08:12:52.215Z,93216
2017-06-24T08:13:52.583Z,91936
2017-06-24T08:14:52.329Z,92288
2017-06-24T08:15:52.390Z,93824
2017-06-24T08:16:53.061Z,95744
2017-06-24T08:17:52.820Z,100768
2017-06-24T08:18:52.258Z,105024
2017-06-24T08:19:52.619Z,104320
2017-06-24T08:20:52.378Z,103648
2017-06-24T08:21:52.747Z,101376
2017-06-24T08:22:52.804Z,98624
2017-06-24T08:23:52.560Z,97600
2017-06-24T08:24:53.230Z,99680
2017-06-24T08:25:52.672Z,102432
2017-06-24T08:26:53.041Z,109664
2017-06-24T08:27:53.090Z,113824
2017-06-24T08:28:52.874Z,114944
2017-06-24T08:29:53.213Z,114304
2017-06-24T08:30:52.958Z,104448
2017-06-24T08:31:53.334Z,92320
2017-06-24T08:32:53.398Z,82592
2017-06-24T08:33:53.139Z,79072
2017-06-24T08:34:53.225Z,81632
2017-06-24T08:35:53.879Z,89024
2017-06-24T08:36:53.311Z,97056
2017-06-24T08:37:53.714Z,104032
2017-06-24T08:38:53.752Z,107104
2017-06-24T08:39:53.497Z,104128
2017-06-24T08:40:53.860Z,99936
2017-06-24T08:41:53.912Z,97568
2017-06-24T08:42:54.290Z,98560
2017-06-24T08:43:53.733Z,101312
2017-06-24T08:44:53.789Z,103584
2017-06-24T08:45:54.157Z,105280
2017-06-24T08:46:53.908Z,104608
2017-06-24T08:47:54.587Z,103488
2017-06-24T08:48:54.329Z,102432
2017-06-24T08:49:54.086Z,102368
2017-06-24T08:50:54.145Z,102944
2017-06-24T08:51:54.514Z,102688
2017-06-24T08:52:54.265Z,102144
2017-06-24T08:53:54.625Z,97152
2017-06-24T08:54:54.378Z,92512
2017-06-24T08:55:54.444Z,85984
2017-06-24T08:56:54.503Z,85248
2017-06-24T08:57:54.557Z,90080
2017-06-24T08:58:54.618Z,93536
2017-06-24T08:59:54.679Z,100736
2017-06-24T09:00:54.737Z,102752
2017-06-24T09:01:55.103Z,102400
2017-06-24T09:02:54.851Z,99200
2017-06-24T09:03:54.903Z,96064
2017-06-24T09:04:55.590Z,98080
2017-06-24T09:05:55.030Z,104960
2017-06-24T09:06:55.697Z,112480
2017-06-24T09:07:55.462Z,116768
2017-06-24T09:08:55.198Z,116768
2017-06-24T09:09:55.262Z,115616
2017-06-24T09:10:55.320Z,111360
2017-06-24T09:11:55.380Z,107808
2017-06-24T09:12:55.433Z,103392
2017-06-24T09:13:55.498Z,105600
2017-06-24T09:14:55.870Z,109344
2017-06-24T09:15:55.617Z,114688
2017-06-24T09:16:55.673Z,121600
2017-06-24T09:17:56.041Z,124960
2017-06-24T09:18:56.116Z,121888
2017-06-24T09:19:55.846Z,120352
2017-06-24T09:20:56.217Z,116032
2017-06-24T09:21:56.268Z,107968
2017-06-24T09:22:56.246Z,104000
2017-06-24T09:23:56.391Z,96800
2017-06-24T09:24:56.448Z,93504
2017-06-24T09:25:56.198Z,98944
2017-06-24T09:26:56.260Z,107168
2017-06-24T09:27:56.627Z,112480
2017-06-24T09:28:56.692Z,117568
2017-06-24T09:29:56.744Z,66240
2017-06-24T09:30:56.491Z,79968
2017-06-24T09:31:56.548Z,109664
2017-06-24T09:32:56.610Z,108192
2017-06-24T09:33:56.675Z,109664
2017-06-24T09:34:56.734Z,108672
2017-06-24T09:35:56.784Z,109472
2017-06-24T09:36:57.151Z,113152
2017-06-24T09:37:56.905Z,114016
2017-06-24T09:38:56.988Z,111904
2017-06-24T09:39:57.019Z,105920
2017-06-24T09:40:57.079Z,100352
2017-06-24T09:41:57.456Z,97024
2017-06-24T09:42:57.193Z,90752
2017-06-24T09:43:57.557Z,90560
2017-06-24T09:44:57.317Z,95232
2017-06-24T09:45:57.368Z,97824
2017-06-24T09:46:57.431Z,99360
2017-06-24T09:47:57.792Z,100480
2017-06-24T09:48:57.552Z,99168
2017-06-24T09:49:58.223Z,98560
2017-06-24T09:50:57.669Z,95616
2017-06-24T09:51:57.725Z,94240
2017-06-24T09:52:58.094Z,96096
2017-06-24T09:53:57.836Z,98624
2017-06-24T09:54:57.901Z,100896
2017-06-24T09:55:58.274Z,102304
2017-06-24T09:56:58.020Z,105376
2017-06-24T09:57:58.385Z,103040
2017-06-24T09:58:58.448Z,98688
2017-06-24T09:59:58.191Z,95680
2017-06-24T10:00:58.258Z,97632
2017-06-24T10:01:58.315Z,101376
2017-06-24T10:02:58.995Z,105152
2017-06-24T10:03:58.737Z,108480
2017-06-24T10:04:58.487Z,114624
2017-06-24T10:05:59.187Z,118368
2017-06-24T10:06:58.671Z,16600
2017-06-24T10:07:58.667Z,106912
2017-06-24T10:08:58.719Z,102880
2017-06-24T10:09:59.401Z,104480
2017-06-24T10:10:58.838Z,106048
2017-06-24T10:11:58.897Z,108384
2017-06-24T10:12:59.269Z,114080
2017-06-24T10:13:59.022Z,119936
2017-06-24T10:14:59.384Z,118112
2017-06-24T10:15:59.135Z,113504
2017-06-24T10:16:59.500Z,109376
2017-06-24T10:17:59.562Z,102880
2017-06-24T10:18:59.613Z,16320
2017-06-24T10:19:59.992Z,102016
2017-06-24T10:20:59.434Z,104864
2017-06-24T10:21:59.789Z,110464
2017-06-24T10:22:59.550Z,111456
2017-06-24T10:23:59.608Z,115008
2017-06-24T10:24:59.967Z,115456
2017-06-24T10:25:59.724Z,114176
2017-06-24T10:27:00.405Z,112832
2017-06-24T10:27:59.834Z,106272
2017-06-24T10:29:00.209Z,112480
2017-06-24T10:30:00.272Z,112512
2017-06-24T10:31:00.018Z,108576
2017-06-24T10:32:00.072Z,103360
2017-06-24T10:33:00.754Z,97600
2017-06-24T10:34:00.420Z,94400
2017-06-24T10:35:00.556Z,91200
2017-06-24T10:36:00.621Z,88960
2017-06-24T10:37:00.367Z,86816
2017-06-24T10:38:00.420Z,92352
2017-06-24T10:39:00.801Z,96352
2017-06-24T10:40:00.547Z,97088
2017-06-24T10:41:00.603Z,97280
2017-06-24T10:42:00.661Z,95008
2017-06-24T10:43:01.337Z,90272
2017-06-24T10:44:01.083Z,89568
2017-06-24T10:45:01.148Z,89248
2017-06-24T10:46:01.201Z,87648
2017-06-24T10:47:00.963Z,88864
2017-06-24T10:48:01.013Z,94368
2017-06-24T10:49:01.372Z,100128
2017-06-24T10:50:01.136Z,102528
2017-06-24T10:51:01.184Z,98720
2017-06-24T10:52:01.561Z,92704
2017-06-24T10:53:01.304Z,89408
2017-06-24T10:54:01.674Z,83904
2017-06-24T10:55:01.729Z,82976
2017-06-24T10:56:01.781Z,85184
2017-06-24T10:57:01.540Z,88928
2017-06-24T10:58:01.908Z,92448
2017-06-24T10:59:01.646Z,92896
2017-06-24T11:00:01.709Z,66944
2017-06-24T11:01:02.067Z,31488
2017-06-24T11:02:01.823Z,8936
2017-06-24T11:03:01.876Z,7928
2017-06-24T11:04:01.934Z,7440
2017-06-24T11:05:01.990Z,7232
2017-06-24T11:06:02.040Z,7244
2017-06-24T11:07:02.411Z,7316
2017-06-24T11:08:02.151Z,7488
2017-06-24T11:09:02.201Z,7476
2017-06-24T11:10:02.254Z,7092
2017-06-24T11:11:02.616Z,7084
2017-06-24T11:12:02.978Z,8100
2017-06-24T11:13:02.724Z,7976
2017-06-24T11:14:02.881Z,7364
2017-06-24T11:15:02.521Z,6896
2017-06-24T11:16:02.883Z,7036
2017-06-24T11:17:02.951Z,7244
2017-06-24T11:18:02.982Z,6916
2017-06-24T11:19:02.720Z,6112
2017-06-24T11:20:02.771Z,5928
2017-06-24T11:21:02.847Z,5924
2017-06-24T11:22:02.879Z,6140
2017-06-24T11:23:03.553Z,6032
2017-06-24T11:24:03.278Z,6016
2017-06-24T11:25:03.026Z,6068
2017-06-24T11:26:03.378Z,6288
2017-06-24T11:27:03.424Z,6404
2017-06-24T11:28:03.175Z,6824
2017-06-24T11:29:03.223Z,7532
2017-06-24T11:30:03.273Z,8932
2017-06-24T11:31:03.311Z,9424
2017-06-24T11:32:03.370Z,8168
2017-06-24T11:33:03.414Z,7472
2017-06-24T11:34:03.687Z,7520
2017-06-24T11:35:04.129Z,7120
2017-06-24T11:36:03.566Z,6552
2017-06-24T11:37:03.922Z,5832
2017-06-24T11:38:03.651Z,5528
2017-06-24T11:39:03.706Z,5372
2017-06-24T11:40:03.752Z,5228
2017-06-24T11:41:04.103Z,5180
2017-06-24T11:42:04.171Z,5212
2017-06-24T11:43:03.890Z,5220
2017-06-24T11:44:04.285Z,5272
2017-06-24T11:45:03.994Z,5384
2017-06-24T11:46:04.044Z,5476
2017-06-24T11:47:04.103Z,5528
2017-06-24T11:48:04.131Z,5564
2017-06-24T11:49:04.794Z,6368
2017-06-24T11:50:04.533Z,7692
2017-06-24T11:51:04.287Z,8816
2017-06-24T11:52:04.631Z,8116
2017-06-24T11:53:04.669Z,6768
2017-06-24T11:54:04.414Z,5924
2017-06-24T11:55:04.769Z,5496
2017-06-24T11:56:04.505Z,5228
2017-06-24T11:57:04.555Z,5096
2017-06-24T11:58:04.599Z,5168
2017-06-24T11:59:04.957Z,5300
2017-06-24T12:00:04.699Z,6480
2017-06-24T12:01:04.743Z,7060
2017-06-24T12:02:05.102Z,7136
2017-06-24T12:03:04.836Z,7072
2017-06-24T12:04:05.182Z,6632
2017-06-24T12:05:04.932Z,7880
2017-06-24T12:06:04.976Z,7944
2017-06-24T12:07:05.336Z,8932
2017-06-24T12:08:05.066Z,8692
2017-06-24T12:09:05.118Z,8148
2017-06-24T12:10:05.475Z,9452
2017-06-24T12:11:05.212Z,9516
2017-06-24T12:12:05.256Z,7868
2017-06-24T12:13:05.301Z,6592
2017-06-24T12:14:05.350Z,5924
2017-06-24T12:15:05.397Z,5636
2017-06-24T12:16:05.753Z,5148
2017-06-24T12:17:05.798Z,4956
2017-06-24T12:18:05.539Z,4992
2017-06-24T12:19:06.205Z,5288
2017-06-24T12:20:05.628Z,5300
2017-06-24T12:21:05.992Z,4856
2017-06-24T12:22:05.719Z,4672
2017-06-24T12:23:06.383Z,5040
2017-06-24T12:24:06.489Z,5684
2017-06-24T12:25:05.861Z,5864
2017-06-24T12:26:06.214Z,5536
2017-06-24T12:27:06.585Z,5936
2017-06-24T12:28:06.004Z,6176
2017-06-24T12:29:06.058Z,5908
2017-06-24T12:30:06.090Z,5760
2017-06-24T12:31:06.450Z,5416
2017-06-24T12:32:06.512Z,5284
2017-06-24T12:33:06.238Z,5152
2017-06-24T12:34:06.593Z,4984
2017-06-24T12:35:06.331Z,5052
2017-06-24T12:36:06.679Z,4972
2017-06-24T12:37:06.750Z,4868
2017-06-24T12:38:06.461Z,4712
2017-06-24T12:39:07.131Z,4720
2017-06-24T12:40:06.556Z,5028
2017-06-24T12:41:06.611Z,5024
2017-06-24T12:42:06.646Z,5152
2017-06-24T12:43:06.697Z,5120
2017-06-24T12:44:06.745Z,4404
2017-06-24T12:45:06.797Z,3812
2017-06-24T12:46:07.161Z,4000
2017-06-24T12:47:07.197Z,4252
2017-06-24T12:48:06.927Z,4548
2017-06-24T12:49:06.984Z,4432
2017-06-24T12:50:07.021Z,4280
2017-06-24T12:51:07.689Z,4208
2017-06-24T12:52:07.419Z,4264
2017-06-24T12:53:07.472Z,4480
2017-06-24T12:54:07.510Z,4292
2017-06-24T12:55:07.254Z,4024
2017-06-24T12:56:07.297Z,3824
2017-06-24T12:57:07.339Z,3780
2017-06-24T12:58:07.388Z,3728
2017-06-24T12:59:07.436Z,3484
2017-06-24T13:00:07.490Z,3480
2017-06-24T13:01:07.536Z,3528
2017-06-24T13:02:07.580Z,3512
2017-06-24T13:03:08.232Z,3632
2017-06-24T13:04:07.661Z,3636
2017-06-24T13:05:08.028Z,3540
2017-06-24T13:06:08.079Z,3480
2017-06-24T13:07:07.806Z,3464
2017-06-24T13:08:07.853Z,3452
2017-06-24T13:09:07.916Z,3404
2017-06-24T13:10:07.943Z,3348
2017-06-24T13:11:08.307Z,3328
2017-06-24T13:12:08.035Z,3324
2017-06-24T13:13:08.391Z,3344
2017-06-24T13:14:08.126Z,3396
2017-06-24T13:15:08.172Z,3384
2017-06-24T13:16:08.859Z,3200
2017-06-24T13:17:08.592Z,3312
2017-06-24T13:18:08.631Z,3360
2017-06-24T13:19:08.358Z,3420
2017-06-24T13:20:08.713Z,3524
2017-06-24T13:21:08.756Z,3612